Time;durP1;ratioP1;P1;durP2;ratioP2;P2;SDS_P1;SDS_P2;PMS_P1;PMS_P2;Temp;Humidity;BMP_temperature;BMP_pressure;BME280_temperature;BME280_humidity;BME280_pressure;Samples;Min_cycle;Max_cycle;Signal;HPM_P1;HPM_P2
2022/11/11 00:01:04;;;;;;;15.88;6.47;;;;;;;8.60;81.24;101860.19;5013552;28;20399;-83
2022/11/11 00:03:29;;;;;;;39.78;14.65;;;;;;;8.57;81.20;101861.44;5021431;28;20423;-82
2022/11/11 00:06:00;;;;;;;36.07;14.30;;;;;;;8.54;80.97;101874.50;5020965;28;20895;-83
2022/11/11 00:08:25;;;;;;;57.10;19.10;;;;;;;8.49;80.59;101863.47;5010230;28;20426;-82
2022/11/11 00:10:51;;;;;;;118.10;43.63;;;;;;;8.46;80.54;101867.41;5023478;28;20392;-83
2022/11/11 00:13:16;;;;;;;11.43;6.07;;;;;;;8.44;80.32;101865.91;5019126;28;20427;-82
2022/11/11 00:15:41;;;;;;;6.53;4.73;;;;;;;8.39;80.69;101863.81;5019682;28;20737;-82
2022/11/11 00:26:25;;;;;;;8.10;6.38;;;;;;;8.29;79.88;101850.66;5023302;28;20481;-82
2022/11/11 00:28:50;;;;;;;13.23;7.37;;;;;;;8.29;80.12;101853.38;5020704;28;20413;-82
2022/11/11 00:31:16;;;;;;;13.27;6.50;;;;;;;8.33;80.15;101865.41;5020896;28;20435;-82
2022/11/11 00:33:41;;;;;;;10.83;6.57;;;;;;;8.33;80.01;101861.91;5024699;28;20417;-82
2022/11/11 00:36:06;;;;;;;10.97;7.10;;;;;;;8.33;80.17;101867.31;5016046;28;20421;-82
2022/11/11 00:38:44;;;;;;;11.45;7.40;;;;;;;8.29;80.23;101866.03;5013168;28;20759;-83
2022/11/11 00:41:10;;;;;;;12.20;7.50;;;;;;;8.27;79.83;101859.94;5021004;28;20843;-82
2022/11/11 00:43:35;;;;;;;12.50;7.63;;;;;;;8.29;79.75;101860.63;5022471;28;20418;-82
2022/11/11 00:51:28;;;;;;;19.55;9.52;;;;;;;8.23;79.99;101864.88;5009764;28;20496;-82
2022/11/11 00:53:54;;;;;;;8.97;6.07;;;;;;;8.23;80.03;101875.69;5039446;28;20434;-82
2022/11/11 00:56:20;;;;;;;7.60;5.22;;;;;;;8.28;79.90;101876.00;5004768;28;20409;-82
2022/11/11 00:58:48;;;;;;;7.28;4.78;;;;;;;8.27;79.89;101882.38;5014102;28;20771;-82
2022/11/11 01:01:13;;;;;;;7.40;4.68;;;;;;;8.27;79.51;101884.25;5023975;28;20379;-82
2022/11/11 01:03:39;;;;;;;9.37;5.80;;;;;;;8.17;80.25;101887.28;5024080;28;20407;-82
2022/11/11 01:06:04;;;;;;;8.38;6.38;;;;;;;8.16;80.10;101882.94;5021462;28;20408;-82
2022/11/11 01:08:31;;;;;;;15.00;7.07;;;;;;;8.21;79.56;101891.25;5022887;28;20435;-82
2022/11/11 01:10:57;;;;;;;10.27;6.93;;;;;;;8.17;79.86;101894.53;5022898;28;20392;-82
2022/11/11 01:13:28;;;;;;;7.57;6.80;;;;;;;8.17;79.92;101898.06;5023969;28;20421;-82
2022/11/11 01:16:00;;;;;;;11.15;7.15;;;;;;;8.16;79.83;101898.28;5019743;28;20400;-82
2022/11/11 01:18:25;;;;;;;7.55;6.40;;;;;;;8.17;79.84;101895.38;5007264;28;20412;-82
2022/11/11 01:21:06;;;;;;;8.88;6.65;;;;;;;8.21;79.91;101899.38;5023392;28;20861;-83
2022/11/11 01:23:34;;;;;;;8.90;6.55;;;;;;;8.23;79.58;101896.50;5023069;28;20753;-82
2022/11/11 01:26:04;;;;;;;7.87;6.60;;;;;;;8.22;80.11;101892.09;5010726;28;20868;-82
2022/11/11 01:28:31;;;;;;;8.02;6.82;;;;;;;8.21;79.80;101888.56;5001792;28;20762;-82
2022/11/11 01:31:04;;;;;;;7.82;6.50;;;;;;;8.23;79.63;101894.59;5022571;28;20383;-82
2022/11/11 01:33:30;;;;;;;8.47;5.53;;;;;;;8.20;80.13;101895.00;5021051;28;20442;-82
2022/11/11 01:35:55;;;;;;;8.30;5.93;;;;;;;8.19;79.79;101897.91;5011703;28;20416;-82
2022/11/11 01:38:20;;;;;;;7.57;6.00;;;;;;;8.18;79.93;101891.66;5005599;28;20509;-82
2022/11/11 01:40:47;;;;;;;7.47;5.97;;;;;;;8.14;79.62;101892.22;5023536;28;20395;-82
2022/11/11 01:43:20;;;;;;;5.75;4.90;;;;;;;8.15;79.99;101886.66;5018466;28;20418;-82
2022/11/11 01:45:58;;;;;;;7.85;5.32;;;;;;;8.16;79.91;101890.19;5017821;28;20440;-82
2022/11/11 01:51:33;;;;;;;6.68;4.80;;;;;;;8.15;80.26;101902.84;5012169;28;20490;-82
2022/11/11 01:54:02;;;;;;;5.05;4.55;;;;;;;8.14;79.94;101897.63;5007469;28;20394;-82
2022/11/11 01:56:29;;;;;;;6.22;4.70;;;;;;;8.16;nan;101899.13;5016575;28;20414;-82
2022/11/11 01:58:59;;;;;;;7.75;5.20;;;;;;;8.15;80.09;101902.84;5011071;28;20489;-82
2022/11/11 02:01:25;;;;;;;6.63;4.83;;;;;;;8.14;79.93;101903.88;5019756;28;20389;-82
2022/11/11 02:06:38;;;;;;;8.50;4.93;;;;;;;8.29;79.22;101901.97;5016601;28;20414;-82
2022/11/11 02:09:06;;;;;;;13.07;5.30;;;;;;;8.32;79.58;101901.59;5021359;28;20420;-83
2022/11/11 02:14:35;;;;;;;11.50;5.13;;;;;;;8.41;79.56;101893.31;5017950;28;20371;-82
2022/11/11 02:17:04;;;;;;;23.02;5.03;;;;;;;8.31;80.08;101894.50;5008569;28;20412;-82
2022/11/11 02:19:38;;;;;;;10.20;4.47;;;;;;;8.29;80.33;101896.56;5018455;28;20404;-82
2022/11/11 02:22:07;;;;;;;11.05;4.82;;;;;;;8.26;80.38;101901.50;5023494;28;20430;-82
2022/11/11 02:24:33;;;;;;;8.18;5.13;;;;;;;8.27;80.46;101893.19;5017654;28;20391;-82
2022/11/11 02:27:00;;;;;;;8.40;4.38;;;;;;;8.25;80.62;101900.66;5017177;28;20420;-82
2022/11/11 02:29:27;;;;;;;10.43;5.13;;;;;;;8.11;81.32;101893.47;5019277;28;20420;-82
2022/11/11 02:31:53;;;;;;;7.40;4.22;;;;;;;8.06;81.39;101897.78;5023341;28;20391;-82
2022/11/11 02:34:18;;;;;;;6.73;4.40;;;;;;;8.02;81.18;101901.88;5022337;28;20391;-82
2022/11/11 02:36:44;;;;;;;11.77;5.00;;;;;;;7.95;81.51;101888.31;5011120;28;20936;-82
2022/11/11 02:39:09;;;;;;;6.75;4.28;;;;;;;7.91;81.13;101884.34;5020859;28;20400;-82
2022/11/11 02:44:19;;;;;;;8.18;4.43;;;;;;;7.91;81.19;101887.03;5011795;28;20767;-82
2022/11/11 02:46:44;;;;;;;6.83;4.37;;;;;;;7.91;81.34;101878.09;5014531;28;20418;-82
2022/11/11 02:49:09;;;;;;;6.90;4.20;;;;;;;7.88;81.76;101884.72;5023709;28;20417;-82
2022/11/11 02:51:34;;;;;;;10.03;4.53;;;;;;;7.86;81.47;101884.09;5026586;28;20495;-82
2022/11/11 02:54:02;;;;;;;9.10;3.97;;;;;;;7.82;81.99;101885.50;5025746;28;20387;-82
2022/11/11 02:59:11;;;;;;;4.97;3.80;;;;;;;7.74;81.74;101888.31;5025928;28;20879;-82
2022/11/11 03:01:36;;;;;;;5.10;3.67;;;;;;;7.69;81.17;101885.34;5026392;28;20387;-82
2022/11/11 03:04:01;;;;;;;4.47;3.30;;;;;;;7.67;80.99;101885.53;5021899;28;20731;-82
2022/11/11 03:06:27;;;;;;;3.57;3.30;;;;;;;7.63;81.14;101900.47;5008554;28;20410;-82
2022/11/11 03:08:52;;;;;;;3.97;3.67;;;;;;;7.60;80.81;101894.59;5024658;28;20475;-82
2022/11/11 03:11:26;;;;;;;4.03;3.73;;;;;;;7.59;80.79;101890.22;5026277;28;20430;-82
2022/11/11 03:13:52;;;;;;;4.35;4.05;;;;;;;7.61;80.63;101888.16;5017836;28;20770;-82
2022/11/11 03:19:01;;;;;;;5.20;4.70;;;;;;;7.65;80.55;101884.91;5012193;28;20371;-82
2022/11/11 03:21:26;;;;;;;9.60;5.37;;;;;;;7.68;80.68;101876.41;5025799;28;20766;-82
2022/11/11 03:23:52;;;;;;;6.80;5.50;;;;;;;7.68;80.39;101884.53;5022570;28;20751;-82
2022/11/11 03:26:18;;;;;;;8.37;4.30;;;;;;;7.60;80.83;101881.97;5011822;28;20481;-82
2022/11/11 03:28:43;;;;;;;4.93;4.10;;;;;;;7.46;81.36;101890.91;5025751;28;20850;-82
2022/11/11 03:31:09;;;;;;;9.53;4.40;;;;;;;7.52;81.77;101887.44;5024521;28;20398;-82
2022/11/11 03:33:34;;;;;;;4.10;3.80;;;;;;;7.64;81.56;101895.91;5022915;28;20396;-82
2022/11/11 03:35:59;;;;;;;4.00;3.70;;;;;;;7.68;81.24;101894.47;5017717;28;20489;-82
2022/11/11 03:38:24;;;;;;;4.43;4.03;;;;;;;7.60;81.47;101902.69;5006026;28;20410;-82
2022/11/11 03:40:57;;;;;;;5.33;3.80;;;;;;;7.55;82.00;101905.94;5024589;28;20422;-82
2022/11/11 03:43:28;;;;;;;11.38;4.03;;;;;;;7.51;82.50;101912.75;5009731;28;20444;-82
2022/11/11 03:45:56;;;;;;;7.53;4.05;;;;;;;7.53;82.26;101924.19;5018792;28;20406;-81
2022/11/11 03:48:22;;;;;;;4.67;4.27;;;;;;;7.54;82.25;101925.84;5039085;28;20590;-82
2022/11/11 03:50:48;;;;;;;6.47;3.95;;;;;;;7.64;82.27;101925.59;5025116;28;20395;-81
2022/11/11 03:53:16;;;;;;;5.70;4.57;;;;;;;7.66;82.39;101935.16;5006058;28;20408;-82
2022/11/11 03:55:41;;;;;;;12.85;4.38;;;;;;;7.60;82.21;101938.63;5016568;28;20400;-82
2022/11/11 03:58:07;;;;;;;4.03;3.80;;;;;;;7.46;83.32;101936.78;5013087;28;20466;-82
2022/11/11 04:00:34;;;;;;;4.55;3.78;;;;;;;7.43;83.50;101941.69;5010837;28;20398;-82
2022/11/11 04:11:25;;;;;;;7.90;4.13;;;;;;;7.62;83.12;101951.91;5043122;28;20764;-82
2022/11/11 04:16:36;;;;;;;11.57;4.60;;;;;;;7.71;83.36;101957.00;5023617;28;20470;-82
2022/11/11 04:21:46;;;;;;;7.47;4.43;;;;;;;7.84;82.84;101973.34;5012571;28;20437;-82
2022/11/11 04:27:09;;;;;;;16.37;4.97;;;;;;;7.80;82.81;101966.63;5007149;28;20753;-82
2022/11/11 04:29:34;;;;;;;10.75;4.85;;;;;;;7.84;83.27;101970.63;5011704;28;20425;-82
2022/11/11 04:34:47;;;;;;;8.68;4.95;;;;;;;7.98;83.50;101970.78;5012356;28;20482;-81
2022/11/11 04:37:13;;;;;;;6.07;4.28;;;;;;;8.01;83.23;101979.34;5001007;28;20497;-82
2022/11/11 04:42:23;;;;;;;4.53;3.92;;;;;;;8.00;83.11;101980.34;5009959;28;20999;-82
2022/11/11 04:47:32;;;;;;;6.32;3.25;;;;;;;7.91;83.84;101980.66;5007989;28;20385;-82
2022/11/11 04:49:57;;;;;;;3.57;3.10;;;;;;;7.91;83.38;101981.50;5005787;28;20761;-81
2022/11/11 04:52:25;;;;;;;7.27;3.80;;;;;;;7.89;83.36;101980.88;5003800;28;20414;-81
2022/11/11 04:57:39;;;;;;;9.90;4.03;;;;;;;7.87;83.19;101991.00;5015025;28;20390;-81
2022/11/11 05:00:05;;;;;;;7.53;3.83;;;;;;;7.87;83.49;101992.91;5008612;28;20389;-81
2022/11/11 05:05:14;;;;;;;14.82;4.00;;;;;;;7.86;84.01;102007.41;5004036;28;20415;-82
2022/11/11 05:10:24;;;;;;;17.80;4.97;;;;;;;7.86;84.18;102010.94;5003933;28;20423;-82
2022/11/11 05:12:49;;;;;;;21.15;4.38;;;;;;;7.82;84.38;102013.19;5021469;28;20793;-82
2022/11/11 05:26:15;;;;;;;22.48;4.57;;;;;;;7.90;84.23;102033.84;5015556;28;20433;-82
2022/11/11 05:28:40;;;;;;;23.73;4.30;;;;;;;7.93;84.47;102035.31;5010897;28;20406;-86
2022/11/11 05:31:05;;;;;;;14.03;3.93;;;;;;;7.92;84.20;102041.72;5012638;28;20434;-80
2022/11/11 05:33:31;;;;;;;9.67;4.13;;;;;;;7.89;84.33;102036.72;5012427;28;20410;-83
2022/11/11 05:35:56;;;;;;;12.07;4.30;;;;;;;7.89;84.83;102042.13;5008596;28;20399;-85
2022/11/11 05:38:21;;;;;;;20.47;4.80;;;;;;;7.90;84.23;102036.53;5013206;28;20416;-86
2022/11/11 05:40:47;;;;;;;15.60;4.67;;;;;;;7.92;84.15;102039.03;5023667;28;20421;-86
2022/11/11 05:43:15;;;;;;;15.17;4.47;;;;;;;7.88;84.36;102033.19;5021191;28;20839;-83
2022/11/11 05:45:41;;;;;;;5.07;3.80;;;;;;;7.92;84.59;102033.63;5020131;28;20799;-84
2022/11/11 05:48:06;;;;;;;20.58;7.55;;;;;;;7.95;84.81;102031.41;5020563;28;20419;-86
2022/11/11 05:50:32;;;;;;;18.40;4.63;;;;;;;7.97;84.69;102042.03;5022412;28;20407;-87
2022/11/11 05:52:57;;;;;;;17.97;4.50;;;;;;;7.96;84.96;102043.88;5022582;28;20395;-82
2022/11/11 05:55:22;;;;;;;19.50;4.33;;;;;;;7.93;85.12;102049.66;5020019;28;20392;-83
2022/11/11 05:57:48;;;;;;;17.47;4.60;;;;;;;7.93;84.50;102046.13;5001174;28;20396;-84
2022/11/11 06:00:14;;;;;;;11.47;4.10;;;;;;;7.95;85.24;102047.59;5001455;28;20415;-81
2022/11/11 06:02:39;;;;;;;9.23;4.25;;;;;;;7.98;84.54;102049.91;5010239;28;20448;-81
2022/11/11 06:05:06;;;;;;;12.63;4.35;;;;;;;7.86;85.31;102045.19;5032701;28;20412;-82
2022/11/11 06:07:32;;;;;;;12.40;4.20;;;;;;;7.91;85.27;102043.59;5006551;28;20875;-81
2022/11/11 06:10:29;;;;;;;5.73;4.30;;;;;;;7.97;84.97;102042.03;5004330;28;20516;-82
2022/11/11 06:13:01;;;;;;;5.30;3.65;;;;;;;7.99;84.73;102045.34;5005186;28;20453;-81
2022/11/11 06:15:27;;;;;;;5.80;3.55;;;;;;;7.99;84.89;102043.50;5010664;28;20408;-81
2022/11/11 06:17:52;;;;;;;6.90;3.72;;;;;;;7.92;85.05;102047.13;5018360;28;20429;-81
2022/11/11 06:20:18;;;;;;;3.60;3.30;;;;;;;7.91;85.17;102043.59;5006013;28;20413;-83
2022/11/11 06:22:55;;;;;;;3.97;3.53;;;;;;;7.94;84.77;102059.41;5003443;28;20475;-82
2022/11/11 06:28:06;;;;;;;11.15;4.60;;;;;;;7.87;84.57;102063.06;5018856;28;20762;-81
2022/11/11 06:30:31;;;;;;;37.37;4.67;;;;;;;7.81;84.57;102067.34;5018860;28;20398;-81
2022/11/11 06:32:57;;;;;;;23.43;4.30;;;;;;;7.79;85.12;102064.84;5009412;28;20410;-80
2022/11/11 06:35:22;;;;;;;11.10;4.77;;;;;;;7.87;85.29;102063.88;5008475;28;20393;-81
2022/11/11 06:37:47;;;;;;;6.10;4.13;;;;;;;7.98;85.17;102073.38;5012127;28;20765;-81
2022/11/11 06:40:12;;;;;;;12.43;4.25;;;;;;;7.96;84.98;102073.56;5013252;28;20412;-90
2022/11/11 06:42:38;;;;;;;19.43;3.70;;;;;;;7.97;84.98;102074.41;5010329;28;20899;-82
2022/11/11 06:45:04;;;;;;;6.03;3.60;;;;;;;8.00;84.91;102076.72;5010202;28;20406;-81
2022/11/11 06:47:29;;;;;;;15.65;3.53;;;;;;;8.04;84.71;102084.25;5021100;28;20400;-81
2022/11/11 06:49:55;;;;;;;29.47;4.80;;;;;;;8.06;85.05;102082.22;5005744;28;20459;-81
2022/11/11 06:52:20;;;;;;;14.43;4.20;;;;;;;8.04;84.95;102075.31;5003562;28;20410;-80
2022/11/11 06:54:47;;;;;;;11.80;4.65;;;;;;;8.03;84.75;102066.41;5003037;28;22558;-80
2022/11/11 06:57:12;;;;;;;8.07;4.43;;;;;;;8.06;84.94;102078.69;5021045;28;20482;-80
2022/11/11 06:59:37;;;;;;;9.40;4.83;;;;;;;8.02;84.36;102074.66;5026485;28;20980;-80
2022/11/11 07:02:05;;;;;;;21.43;5.43;;;;;;;8.01;85.12;102075.69;5018105;28;20438;-80
2022/11/11 07:04:31;;;;;;;9.93;4.57;;;;;;;8.04;85.08;102076.16;4998186;28;20960;-80
2022/11/11 07:06:56;;;;;;;15.53;4.80;;;;;;;8.05;84.82;102085.09;5017494;28;20401;-80
2022/11/11 07:16:05;;;;;;;9.30;4.72;;;;;;;7.98;85.02;102078.75;5008052;28;20411;-80
2022/11/11 07:18:30;;;;;;;15.18;5.20;;;;;;;7.96;84.40;102078.13;5029388;28;20407;-81
2022/11/11 07:20:56;;;;;;;15.13;4.30;;;;;;;7.92;84.67;102087.63;5015019;28;20759;-81
2022/11/11 07:23:21;;;;;;;11.17;4.50;;;;;;;7.96;84.65;102089.78;5004889;28;20477;-80
2022/11/11 07:25:46;;;;;;;6.80;4.43;;;;;;;7.97;84.71;102094.13;5012826;28;20403;-88
2022/11/11 07:28:11;;;;;;;8.07;5.37;;;;;;;8.02;84.94;102096.28;5038866;28;20459;-80
2022/11/11 07:30:37;;;;;;;7.63;5.47;;;;;;;8.03;84.82;102096.09;5012418;28;20775;-81
2022/11/11 07:33:02;;;;;;;8.07;4.03;;;;;;;8.10;84.89;102098.88;5012500;28;20417;-80
2022/11/11 07:35:27;;;;;;;8.43;3.72;;;;;;;8.14;84.30;102090.19;5017428;28;20452;-81
2022/11/11 07:37:53;;;;;;;5.97;3.63;;;;;;;7.91;84.25;102088.63;5017833;28;20445;-80
2022/11/11 07:40:19;;;;;;;4.97;3.83;;;;;;;7.97;84.67;102090.63;5020472;28;20406;-80
2022/11/11 07:42:44;;;;;;;8.10;4.55;;;;;;;8.09;84.11;102089.94;5003582;28;20499;-79
2022/11/11 07:45:11;;;;;;;7.15;4.13;;;;;;;8.12;83.73;102091.41;5015127;28;20532;-79
2022/11/11 07:47:36;;;;;;;6.95;3.85;;;;;;;8.17;83.67;102097.06;5021017;28;20409;-79
2022/11/11 07:50:04;;;;;;;10.23;5.40;;;;;;;8.18;83.39;102096.91;5014490;28;20427;-79
2022/11/11 07:52:30;;;;;;;12.10;5.22;;;;;;;8.15;83.83;102099.97;5006709;28;20410;-81
2022/11/11 07:54:55;;;;;;;6.23;4.57;;;;;;;8.08;83.81;102103.59;5025788;28;20387;-78
2022/11/11 07:57:21;;;;;;;5.60;5.03;;;;;;;8.10;84.28;102105.09;5018584;28;20436;-81
2022/11/11 07:59:46;;;;;;;5.25;4.22;;;;;;;8.10;84.05;102104.28;5024741;28;20435;-80
2022/11/11 08:02:12;;;;;;;7.07;4.33;;;;;;;8.08;84.54;102103.59;5030020;28;20481;-81
2022/11/11 08:04:38;;;;;;;4.93;4.40;;;;;;;8.16;84.17;102096.25;5017235;28;20400;-81
2022/11/11 08:07:03;;;;;;;4.63;3.70;;;;;;;8.13;84.27;102104.75;5014891;28;20405;-81
2022/11/11 08:09:29;;;;;;;3.93;3.63;;;;;;;8.21;84.07;102109.16;5005822;28;20423;-80
2022/11/11 08:14:38;;;;;;;4.33;3.93;;;;;;;8.33;83.12;102102.31;5002241;28;20416;-81
2022/11/11 08:17:03;;;;;;;5.03;4.33;;;;;;;8.29;83.26;102114.50;5007833;28;20411;-81
2022/11/11 08:19:29;;;;;;;6.70;3.80;;;;;;;8.22;83.44;102109.00;5009593;28;20416;-81
2022/11/11 08:21:54;;;;;;;3.60;3.30;;;;;;;8.29;83.79;102109.94;5015218;28;20405;-80
2022/11/11 08:24:20;;;;;;;4.80;4.03;;;;;;;8.32;83.06;102104.16;5024236;28;20866;-81
2022/11/11 08:26:46;;;;;;;5.78;4.10;;;;;;;8.34;83.54;102104.81;5013829;28;20389;-81
2022/11/11 08:29:12;;;;;;;4.03;3.72;;;;;;;8.32;83.63;102109.56;5011101;28;20423;-81
2022/11/11 08:31:38;;;;;;;7.80;3.63;;;;;;;8.33;83.22;102105.00;5004974;28;20474;-81
2022/11/11 08:34:04;;;;;;;4.53;4.13;;;;;;;8.37;83.52;102116.25;5015029;28;20392;-82
2022/11/11 08:36:29;;;;;;;11.43;4.30;;;;;;;8.39;83.48;102098.00;5019331;28;20404;-81
2022/11/11 08:38:54;;;;;;;3.63;3.33;;;;;;;8.48;83.29;102107.66;5019166;28;20972;-81
2022/11/11 08:41:21;;;;;;;4.87;4.00;;;;;;;8.48;82.87;102108.50;5025227;28;20947;-81
2022/11/11 08:43:46;;;;;;;7.93;4.75;;;;;;;8.50;82.77;102102.88;5029008;28;20762;-81
2022/11/11 08:46:12;;;;;;;4.33;4.00;;;;;;;8.56;82.75;102104.84;5019487;28;20400;-81
2022/11/11 08:48:37;;;;;;;4.13;3.73;;;;;;;8.60;82.99;102103.41;5014210;28;20400;-81
2022/11/11 08:51:02;;;;;;;3.60;3.27;;;;;;;8.65;82.63;102104.53;5018853;28;20403;-80
2022/11/11 08:53:27;;;;;;;5.20;4.13;;;;;;;8.69;82.65;102107.69;5012931;28;20419;-86
2022/11/11 08:55:53;;;;;;;5.50;3.78;;;;;;;8.72;82.69;102105.44;5011219;28;20496;-85
2022/11/11 08:58:19;;;;;;;4.40;4.10;;;;;;;8.79;82.23;102108.22;5023115;28;20437;-85
2022/11/11 09:00:44;;;;;;;4.82;4.25;;;;;;;8.80;82.19;102109.84;5028755;28;20387;-85
2022/11/11 09:03:10;;;;;;;4.83;4.43;;;;;;;8.84;81.66;102106.59;5011833;28;20409;-86
2022/11/11 09:05:40;;;;;;;4.68;4.28;;;;;;;8.89;81.81;102094.38;5020666;28;20380;-85
2022/11/11 09:08:07;;;;;;;6.18;4.97;;;;;;;8.97;81.49;102102.31;5022960;28;20416;-86
2022/11/11 09:10:36;;;;;;;4.60;4.20;;;;;;;9.01;81.30;102114.44;5007286;28;20498;-85
2022/11/11 09:13:02;;;;;;;5.10;4.60;;;;;;;9.03;81.32;102104.25;5017752;28;20471;-86
2022/11/11 09:15:27;;;;;;;7.05;5.05;;;;;;;9.07;81.48;102109.06;5024730;28;20383;-84
2022/11/11 09:17:53;;;;;;;5.82;5.32;;;;;;;9.09;81.60;102114.31;5025238;28;20400;-85
2022/11/11 09:20:19;;;;;;;6.85;5.40;;;;;;;9.13;81.39;102112.84;5019528;28;20411;-84
2022/11/11 09:22:45;;;;;;;5.55;5.05;;;;;;;9.13;81.47;102112.84;5001307;28;20406;-83
2022/11/11 09:25:11;;;;;;;6.87;6.07;;;;;;;9.12;81.87;102111.22;5019792;28;20912;-86
2022/11/11 09:27:36;;;;;;;6.13;5.30;;;;;;;9.15;81.76;102114.38;5027588;28;20393;-85
2022/11/11 09:30:03;;;;;;;8.97;6.27;;;;;;;9.24;81.60;102113.19;5021982;28;20425;-83
2022/11/11 09:32:29;;;;;;;9.15;6.60;;;;;;;9.30;81.69;102112.38;5021241;28;20405;-83
2022/11/11 09:34:54;;;;;;;7.13;6.47;;;;;;;9.35;81.59;102111.81;5019671;28;20402;-85
2022/11/11 09:37:20;;;;;;;11.63;7.00;;;;;;;9.35;81.28;102107.22;5025919;28;20829;-84
2022/11/11 09:39:45;;;;;;;7.10;5.93;;;;;;;9.35;81.31;102106.41;5022940;28;20898;-84
2022/11/11 09:42:35;;;;;;;9.10;6.20;;;;;;;9.35;81.43;102104.50;5023764;28;20430;-87
2022/11/11 09:45:15;;;;;;;6.65;6.05;;;;;;;9.45;81.37;102104.16;5036771;28;20430;-83
2022/11/11 09:48:03;;;;;;;7.13;6.40;;;;;;;9.52;81.33;102096.94;5026701;28;20434;-83
2022/11/11 09:50:32;;;;;;;8.32;6.55;;;;;;;9.56;81.57;102100.91;5025592;28;20403;-87
2022/11/11 09:53:21;;;;;;;10.80;6.53;;;;;;;9.54;81.26;102104.84;5014955;28;20942;-84
2022/11/11 09:55:51;;;;;;;9.82;6.95;;;;;;;9.52;81.46;102104.19;5010152;28;20403;-85
2022/11/11 09:58:25;;;;;;;6.68;6.07;;;;;;;9.55;81.53;102110.06;5014336;28;20391;-83
2022/11/11 10:01:01;;;;;;;7.75;6.10;;;;;;;9.60;81.50;102109.47;5013565;28;20403;-83
2022/11/11 10:03:29;;;;;;;8.98;6.75;;;;;;;9.62;81.00;102102.81;5014014;28;20445;-88
2022/11/11 10:06:13;;;;;;;11.38;7.05;;;;;;;9.63;81.20;102106.38;5020088;28;20474;-86
2022/11/11 10:08:53;;;;;;;12.73;6.45;;;;;;;9.54;81.58;102100.28;5022922;28;20414;-86
2022/11/11 10:11:50;;;;;;;10.05;6.85;;;;;;;9.49;81.52;102101.91;5024268;28;20484;-82
2022/11/11 10:14:16;;;;;;;7.85;7.00;;;;;;;9.35;82.06;102101.81;5004208;28;20465;-83
2022/11/11 10:17:01;;;;;;;9.38;7.13;;;;;;;9.37;82.71;102102.47;5054983;28;20936;-82
2022/11/11 10:19:40;;;;;;;7.30;6.43;;;;;;;9.42;82.15;102106.44;5003445;28;20404;-82
2022/11/11 10:22:19;;;;;;;9.55;7.32;;;;;;;9.43;82.44;102105.41;5024041;28;20387;-82
2022/11/11 10:24:52;;;;;;;9.60;6.70;;;;;;;9.41;82.33;102100.19;5004043;28;20392;-82
2022/11/11 10:27:22;;;;;;;11.93;7.40;;;;;;;9.49;82.31;102107.31;5017382;28;20689;-82
2022/11/11 10:29:48;;;;;;;8.10;6.80;;;;;;;9.53;82.44;102109.44;5020078;28;20409;-82
2022/11/11 10:32:32;;;;;;;10.27;7.32;;;;;;;9.68;82.20;102117.44;5016189;28;20433;-82
2022/11/11 10:35:15;;;;;;;9.55;6.90;;;;;;;9.73;81.57;102114.97;5027843;28;20757;-82
2022/11/11 10:37:42;;;;;;;16.90;7.40;;;;;;;9.73;81.44;102118.53;5026692;28;20390;-83
2022/11/11 10:40:19;;;;;;;8.87;6.93;;;;;;;9.65;81.82;102118.66;5016851;28;20903;-82
2022/11/11 10:42:44;;;;;;;9.82;7.25;;;;;;;9.61;82.54;102121.97;5026308;28;20406;-82
2022/11/11 10:45:37;;;;;;;11.57;8.05;;;;;;;9.69;82.20;102113.69;5026057;28;20445;-82
2022/11/11 10:48:08;;;;;;;8.88;7.78;;;;;;;9.67;82.24;102108.50;5008370;28;20406;-83
2022/11/11 10:50:36;;;;;;;11.30;7.72;;;;;;;9.69;82.33;102105.56;5024439;28;20413;-82
2022/11/11 10:53:12;;;;;;;16.03;8.10;;;;;;;9.56;82.63;102106.31;5026307;28;20395;-82
2022/11/11 10:55:46;;;;;;;9.82;7.50;;;;;;;9.58;83.12;102101.53;5027444;28;20392;-82
2022/11/11 10:58:26;;;;;;;11.57;8.32;;;;;;;9.71;82.93;102096.25;5021511;28;20898;-83
2022/11/11 11:00:54;;;;;;;13.30;8.10;;;;;;;9.82;82.40;102101.06;5020110;28;20422;-82
2022/11/11 11:03:22;;;;;;;11.87;8.10;;;;;;;9.84;82.10;102090.91;5030994;28;20396;-83
2022/11/11 11:05:56;;;;;;;12.20;8.00;;;;;;;9.84;82.45;102093.59;5025902;28;20837;-83
2022/11/11 11:08:29;;;;;;;13.10;8.90;;;;;;;9.80;82.00;102097.75;5030547;28;20403;-83
2022/11/11 11:10:58;;;;;;;10.13;7.95;;;;;;;9.69;82.71;102098.28;5030844;28;20805;-83
2022/11/11 11:13:26;;;;;;;10.67;7.97;;;;;;;9.79;82.31;102101.47;5030827;28;20407;-83
2022/11/11 11:15:56;;;;;;;10.20;8.00;;;;;;;9.81;82.23;102099.38;5010935;28;20436;-82
2022/11/11 11:18:22;;;;;;;11.50;8.43;;;;;;;9.99;81.57;102085.31;5029408;28;20391;-83
2022/11/11 11:20:55;;;;;;;11.33;8.70;;;;;;;9.99;81.40;102081.78;5023984;28;20410;-82
2022/11/11 11:23:36;;;;;;;12.27;8.80;;;;;;;9.98;81.68;102085.53;5024120;28;20387;-83
2022/11/11 11:26:03;;;;;;;11.85;9.30;;;;;;;10.09;81.37;102074.13;5016840;28;20412;-83
2022/11/11 11:28:28;;;;;;;11.32;8.40;;;;;;;10.20;81.20;102076.28;5014573;28;20452;-82
2022/11/11 11:31:01;;;;;;;10.83;8.10;;;;;;;10.14;81.30;102074.38;5019760;28;20419;-82
2022/11/11 11:33:26;;;;;;;10.60;8.35;;;;;;;10.16;81.10;102064.19;5002053;28;20819;-83
2022/11/11 11:35:51;;;;;;;10.75;8.40;;;;;;;10.10;81.51;102073.09;5001879;28;20414;-83
2022/11/11 11:38:17;;;;;;;8.80;7.70;;;;;;;10.09;81.36;102072.25;4997824;28;20398;-82
2022/11/11 11:40:58;;;;;;;8.30;7.50;;;;;;;10.10;81.50;102067.66;5011441;28;20869;-82
2022/11/11 11:43:30;;;;;;;7.82;6.97;;;;;;;10.13;81.29;102062.69;5009012;28;20509;-79
2022/11/11 11:45:58;;;;;;;7.87;7.07;;;;;;;10.16;81.10;102050.63;5003942;28;20525;-79
2022/11/11 11:48:49;;;;;;;10.67;7.50;;;;;;;10.17;81.29;102049.59;5003118;28;20422;-79
2022/11/11 11:51:50;;;;;;;9.30;7.60;;;;;;;10.18;81.10;102056.66;5004005;28;20556;-79
2022/11/11 11:54:35;;;;;;;9.40;7.82;;;;;;;10.06;81.29;102045.56;5001438;28;20408;-79
2022/11/11 11:57:18;;;;;;;8.57;7.25;;;;;;;10.00;81.55;102038.25;5001302;28;21045;-79
2022/11/11 12:00:03;;;;;;;7.80;6.80;;;;;;;10.00;81.62;102043.66;5001375;28;20422;-79
2022/11/11 12:02:56;;;;;;;8.02;7.22;;;;;;;10.02;81.91;102038.88;5000407;28;20441;-78
2022/11/11 12:05:26;;;;;;;9.40;7.88;;;;;;;9.97;81.91;102051.38;5005141;28;20485;-79
2022/11/11 12:08:20;;;;;;;12.77;8.55;;;;;;;10.06;81.93;102061.81;5001241;28;20421;-78
2022/11/11 12:11:01;;;;;;;11.60;9.23;;;;;;;10.04;82.18;102050.38;5000819;28;20441;-78
2022/11/11 12:13:26;;;;;;;9.45;8.15;;;;;;;10.08;82.22;102050.75;5009763;28;20905;-77
2022/11/11 12:16:32;;;;;;;11.20;8.97;;;;;;;10.02;82.39;102057.84;5011553;28;20397;-78
2022/11/11 12:19:04;;;;;;;10.38;8.90;;;;;;;10.02;82.53;102062.41;5006659;28;20477;-78
2022/11/11 12:21:56;;;;;;;10.82;9.02;;;;;;;10.01;82.65;102060.75;5008676;28;20408;-79
2022/11/11 12:24:48;;;;;;;12.13;10.20;;;;;;;9.99;83.23;102057.41;5011287;28;20519;-79
2022/11/11 12:27:27;;;;;;;13.88;9.40;;;;;;;10.04;82.75;102066.63;5007353;28;20395;-79
2022/11/11 12:29:58;;;;;;;11.63;9.45;;;;;;;9.98;82.86;102063.88;4996532;28;20441;-79
2022/11/11 12:32:43;;;;;;;14.75;9.82;;;;;;;10.02;82.92;102055.13;5012253;28;20404;-81
2022/11/11 12:35:24;;;;;;;11.85;9.57;;;;;;;10.03;82.95;102050.53;5017080;28;20375;-80
2022/11/11 12:38:09;;;;;;;13.18;10.13;;;;;;;9.99;83.14;102054.69;5004337;28;20913;-80
2022/11/11 12:40:56;;;;;;;13.90;10.68;;;;;;;10.04;83.15;102060.34;5005832;28;20510;-81
2022/11/11 12:43:41;;;;;;;11.90;10.25;;;;;;;10.13;82.96;102056.41;5005130;28;20468;-81
2022/11/11 12:46:10;;;;;;;19.17;11.15;;;;;;;10.02;82.83;102063.25;5031429;28;20421;-80
2022/11/11 12:48:44;;;;;;;13.15;10.68;;;;;;;10.03;83.19;102058.69;5004725;28;21008;-81
2022/11/11 12:51:47;;;;;;;11.70;10.15;;;;;;;10.10;83.03;102051.41;5033913;28;20448;-81
2022/11/11 12:54:44;;;;;;;12.88;10.57;;;;;;;10.06;83.12;102042.84;5002018;28;20410;-81
2022/11/11 12:57:17;;;;;;;16.00;11.73;;;;;;;10.12;82.90;102046.63;5000883;28;20413;-80
2022/11/11 13:00:18;;;;;;;15.00;11.50;;;;;;;10.06;83.04;102044.72;4998339;28;20422;-80
2022/11/11 13:02:55;;;;;;;13.52;10.50;;;;;;;10.17;83.01;102050.44;5000312;28;20425;-80
2022/11/11 13:05:32;;;;;;;15.45;12.25;;;;;;;10.18;82.84;102059.38;5001494;28;20417;-80
2022/11/11 13:08:23;;;;;;;17.45;12.35;;;;;;;10.24;82.71;102055.88;4995006;28;20476;-80